createdAt,value
2022-10-28T00:00:56.320Z,15.90
2022-10-28T00:03:23.053Z,15.90
2022-10-28T00:05:49.808Z,15.80
2022-10-28T00:08:16.553Z,15.90
2022-10-28T00:10:43.268Z,15.90
2022-10-28T00:13:10.013Z,15.90
2022-10-28T00:15:36.787Z,15.50
2022-10-28T00:18:03.567Z,15.50
2022-10-28T00:20:31.936Z,15.40
2022-10-28T00:22:58.662Z,15.50
2022-10-28T00:27:53.174Z,15.60
2022-10-28T00:30:20.268Z,15.70
2022-10-28T00:32:47.112Z,15.70
2022-10-28T00:35:13.973Z,15.60
2022-10-28T00:37:40.917Z,15.60
2022-10-28T00:40:08.245Z,15.60
2022-10-28T00:42:35.031Z,15.60
2022-10-28T00:45:04.114Z,15.70
2022-10-28T00:47:45.792Z,15.70
2022-10-28T00:50:28.639Z,15.70
2022-10-28T00:53:12.913Z,15.70
2022-10-28T00:55:40.087Z,15.70
2022-10-28T00:58:09.593Z,15.80
2022-10-28T01:00:36.483Z,15.90
2022-10-28T01:03:03.888Z,15.90
2022-10-28T01:05:35.748Z,15.80
2022-10-28T01:08:04.483Z,15.80
2022-10-28T01:11:01.968Z,15.80
2022-10-28T01:13:56.447Z,15.60
2022-10-28T01:16:50.887Z,15.40
2022-10-28T01:19:33.271Z,15.50
2022-10-28T01:22:21.641Z,15.50
2022-10-28T01:25:14.704Z,15.60
2022-10-28T01:28:04.659Z,15.70
2022-10-28T01:31:08.488Z,14.80
2022-10-28T01:33:51.593Z,14.80
2022-10-28T01:36:39.829Z,14.90
2022-10-28T01:39:13.176Z,15.00
2022-10-28T01:41:55.327Z,15.00
2022-10-28T01:44:37.751Z,15.00
2022-10-28T01:47:08.265Z,15.10
2022-10-28T01:49:56.097Z,15.10
2022-10-28T01:52:27.458Z,15.30
2022-10-28T01:55:00.653Z,15.30
2022-10-28T01:57:29.657Z,15.30
2022-10-28T01:59:57.148Z,15.20
2022-10-28T02:02:24.371Z,15.20
2022-10-28T02:04:51.156Z,15.10
2022-10-28T02:07:17.962Z,15.10
2022-10-28T02:10:02.416Z,15.20
2022-10-28T02:12:32.068Z,15.20
2022-10-28T02:15:04.683Z,15.20
2022-10-28T02:17:57.541Z,15.20
2022-10-28T02:20:43.182Z,15.30
2022-10-28T02:23:18.776Z,15.20
2022-10-28T02:25:50.107Z,15.10
2022-10-28T02:28:24.801Z,15.00
2022-10-28T02:31:20.813Z,15.00
2022-10-28T02:33:52.567Z,15.10
2022-10-28T02:36:22.286Z,15.10
2022-10-28T02:38:52.764Z,15.10
2022-10-28T02:41:33.431Z,15.10
2022-10-28T02:44:06.413Z,15.00
2022-10-28T02:46:35.557Z,15.00
2022-10-28T02:49:07.630Z,15.00
2022-10-28T02:51:38.607Z,15.00
2022-10-28T02:54:09.944Z,14.90
2022-10-28T02:56:40.869Z,15.00
2022-10-28T02:59:12.842Z,14.90
2022-10-28T03:01:40.412Z,14.90
2022-10-28T03:04:07.280Z,14.80
2022-10-28T03:09:01.308Z,14.70
2022-10-28T03:13:55.171Z,14.60
2022-10-28T03:16:21.929Z,14.60
2022-10-28T03:18:49.415Z,14.60
2022-10-28T03:21:16.159Z,14.60
2022-10-28T03:23:42.869Z,14.60
2022-10-28T03:28:36.772Z,14.60
2022-10-28T03:31:03.854Z,14.60
2022-10-28T03:35:57.861Z,14.20
2022-10-28T03:38:24.612Z,14.20
2022-10-28T03:40:51.584Z,14.10
2022-10-28T03:43:18.294Z,14.10
2022-10-28T03:45:45.128Z,14.10
2022-10-28T03:48:11.863Z,14.00
2022-10-28T03:53:05.750Z,13.70
2022-10-28T03:58:02.954Z,13.70
2022-10-28T04:00:30.178Z,13.50
2022-10-28T04:02:57.096Z,13.60
2022-10-28T04:05:23.990Z,13.70
2022-10-28T04:10:18.009Z,13.90
2022-10-28T04:12:44.717Z,13.90
2022-10-28T04:15:11.471Z,13.70
2022-10-28T04:20:05.846Z,13.90
2022-10-28T04:22:32.589Z,13.80
2022-10-28T04:27:26.758Z,13.70
2022-10-28T04:29:53.471Z,13.70
2022-10-28T04:34:47.283Z,13.90
2022-10-28T04:42:14.654Z,13.80
2022-10-28T04:49:38.143Z,13.50
2022-10-28T04:52:06.104Z,13.60
2022-10-28T04:54:32.822Z,13.60
2022-10-28T05:01:54.081Z,13.70
2022-10-28T05:11:42.298Z,13.50
2022-10-28T05:16:36.348Z,13.50
2022-10-28T05:23:57.437Z,13.50
2022-10-28T05:31:18.958Z,13.10
2022-10-28T05:33:45.670Z,13.10
2022-10-28T05:36:12.693Z,13.00
2022-10-28T05:43:34.076Z,13.20
2022-10-28T06:05:43.422Z,13.10
2022-10-28T06:08:12.510Z,13.10
2022-10-28T06:10:40.191Z,13.00
2022-10-28T06:13:05.945Z,13.10
2022-10-28T06:15:33.042Z,13.10
2022-10-28T06:17:59.803Z,13.00
2022-10-28T06:22:55.548Z,12.80
2022-10-28T06:25:24.765Z,12.60
2022-10-28T06:27:56.590Z,12.70
2022-10-28T06:30:25.390Z,12.90
2022-10-28T06:32:55.283Z,13.00
2022-10-28T06:37:57.979Z,13.20
2022-10-28T06:40:25.421Z,13.20
2022-10-28T06:42:59.899Z,13.10
2022-10-28T06:45:28.307Z,13.10
2022-10-28T06:48:01.468Z,13.10
2022-10-28T06:50:28.906Z,13.20
2022-10-28T06:52:59.952Z,13.40
2022-10-28T06:55:27.399Z,13.50
2022-10-28T06:57:54.901Z,13.70
2022-10-28T07:00:22.035Z,14.10
2022-10-28T07:02:53.499Z,14.10
2022-10-28T07:05:21.191Z,14.30
2022-10-28T07:10:15.987Z,14.30
2022-10-28T07:12:42.728Z,14.30
2022-10-28T07:15:10.645Z,14.70
2022-10-28T07:17:37.501Z,15.20
2022-10-28T07:20:04.771Z,15.60
2022-10-28T07:22:31.553Z,15.60
2022-10-28T07:27:25.591Z,16.10
2022-10-28T07:29:52.366Z,16.40
2022-10-28T07:32:19.085Z,16.50
2022-10-28T07:34:45.881Z,16.50
2022-10-28T07:37:13.019Z,16.70
2022-10-28T07:39:39.816Z,16.70
2022-10-28T07:42:06.590Z,16.80
2022-10-28T07:44:33.329Z,16.70
2022-10-28T07:47:00.118Z,16.60
2022-10-28T07:49:26.859Z,17.00
2022-10-28T07:51:53.580Z,17.10
2022-10-28T07:54:20.365Z,18.00
2022-10-28T07:56:47.268Z,19.00
2022-10-28T07:59:14.087Z,20.00
2022-10-28T08:01:40.907Z,20.80
2022-10-28T08:04:07.856Z,21.50
2022-10-28T08:06:35.897Z,22.00
2022-10-28T08:09:03.452Z,22.60
2022-10-28T08:11:30.218Z,23.30
2022-10-28T08:13:57.408Z,23.60
2022-10-28T08:16:24.275Z,23.70
2022-10-28T08:18:53.123Z,23.90
2022-10-28T08:21:19.938Z,24.20
2022-10-28T08:23:46.954Z,24.10
2022-10-28T08:26:15.445Z,24.10
2022-10-28T08:28:43.007Z,24.20
2022-10-28T08:31:12.221Z,25.10
2022-10-28T08:33:42.360Z,24.60
2022-10-28T08:36:12.455Z,24.60
2022-10-28T08:38:44.981Z,23.90
2022-10-28T08:41:30.373Z,24.10
2022-10-28T08:44:03.020Z,23.50
2022-10-28T08:46:43.200Z,23.70
2022-10-28T08:49:16.364Z,23.70
2022-10-28T08:51:58.742Z,23.80
2022-10-28T08:54:36.997Z,23.00
2022-10-28T08:57:14.568Z,23.00
2022-10-28T08:59:45.691Z,23.00
2022-10-28T09:02:22.907Z,22.90
2022-10-28T09:05:05.772Z,22.80
2022-10-28T09:07:36.361Z,23.50
2022-10-28T09:10:05.596Z,22.80
2022-10-28T09:12:48.373Z,22.90
2022-10-28T09:15:20.767Z,23.60
2022-10-28T09:17:47.494Z,23.50
2022-10-28T09:20:19.866Z,23.60
2022-10-28T09:22:58.206Z,23.20
2022-10-28T09:25:48.581Z,24.40
2022-10-28T09:28:27.730Z,24.30
2022-10-28T09:31:03.564Z,24.30
2022-10-28T09:33:58.944Z,24.10
2022-10-28T09:36:33.301Z,24.10
2022-10-28T09:39:01.771Z,24.30
2022-10-28T09:41:33.624Z,24.20
2022-10-28T09:44:25.152Z,24.30
2022-10-28T09:46:55.368Z,24.80
2022-10-28T09:49:27.809Z,25.20
2022-10-28T09:52:30.912Z,25.30
2022-10-28T09:54:59.911Z,25.60
2022-10-28T09:57:31.504Z,25.50
2022-10-28T09:59:59.650Z,25.00
2022-10-28T10:02:32.126Z,24.50
2022-10-28T10:05:01.222Z,25.10
2022-10-28T10:07:38.841Z,25.40
2022-10-28T10:10:21.963Z,25.20
2022-10-28T10:12:52.453Z,26.20
2022-10-28T10:15:27.624Z,26.50
2022-10-28T10:17:57.185Z,25.20
2022-10-28T10:20:23.956Z,25.10
2022-10-28T10:22:50.695Z,26.30
2022-10-28T10:25:20.460Z,27.40
2022-10-28T10:27:54.809Z,26.80
2022-10-28T10:30:39.759Z,25.20
2022-10-28T10:33:17.287Z,26.60
2022-10-28T10:35:44.381Z,26.70
2022-10-28T10:38:15.748Z,26.50
2022-10-28T10:40:53.134Z,26.50
2022-10-28T10:43:25.692Z,26.30
2022-10-28T10:45:59.617Z,27.00
2022-10-28T10:48:26.980Z,26.90
2022-10-28T10:50:54.468Z,25.90
2022-10-28T10:53:23.566Z,25.60
2022-10-28T10:56:02.182Z,25.90
2022-10-28T10:58:34.848Z,25.80
2022-10-28T11:01:04.520Z,25.90
2022-10-28T11:03:31.500Z,25.60
2022-10-28T11:06:21.909Z,25.00
2022-10-28T11:08:47.631Z,25.70
2022-10-28T11:11:18.598Z,25.00
2022-10-28T11:13:46.866Z,24.10
2022-10-28T11:16:22.889Z,23.80
2022-10-28T11:18:53.796Z,24.30
2022-10-28T11:21:47.918Z,24.60
2022-10-28T11:24:44.895Z,24.40
2022-10-28T11:27:47.558Z,24.40
2022-10-28T11:30:21.607Z,24.50
2022-10-28T11:33:28.952Z,24.20
2022-10-28T11:35:59.507Z,24.40
2022-10-28T11:38:45.558Z,24.50
2022-10-28T11:41:26.256Z,24.60
2022-10-28T11:43:57.631Z,24.90
2022-10-28T11:46:53.701Z,24.80
2022-10-28T11:49:35.524Z,25.40
2022-10-28T11:52:19.606Z,25.20
2022-10-28T11:54:55.526Z,25.10
2022-10-28T11:57:28.100Z,24.40
2022-10-28T12:02:37.948Z,25.00
2022-10-28T12:05:25.728Z,25.30
2022-10-28T12:08:04.304Z,25.30
2022-10-28T12:10:52.697Z,25.40
2022-10-28T12:13:34.288Z,25.70
2022-10-28T12:16:20.509Z,25.80
2022-10-28T12:19:01.835Z,25.70
2022-10-28T12:21:28.824Z,25.80
2022-10-28T12:23:57.667Z,25.70
2022-10-28T12:26:36.616Z,25.40
2022-10-28T12:29:09.642Z,25.10
2022-10-28T12:31:47.726Z,24.50
2022-10-28T12:34:20.216Z,24.30
2022-10-28T12:36:55.519Z,24.50
2022-10-28T12:39:49.051Z,24.20
2022-10-28T12:42:28.813Z,24.30
2022-10-28T12:44:58.516Z,24.30
2022-10-28T12:47:47.842Z,24.50
2022-10-28T12:50:27.184Z,24.30
2022-10-28T12:53:05.668Z,24.10
2022-10-28T12:55:41.478Z,24.00
2022-10-28T12:58:20.960Z,23.80
2022-10-28T13:00:53.405Z,24.00
2022-10-28T13:03:20.167Z,24.20
2022-10-28T13:06:17.722Z,24.40
2022-10-28T13:11:35.602Z,24.60
2022-10-28T13:14:05.459Z,24.60
2022-10-28T13:16:53.619Z,24.50
2022-10-28T13:19:46.754Z,24.50
2022-10-28T13:25:08.589Z,24.40
2022-10-28T13:30:05.159Z,24.30
2022-10-28T13:32:38.335Z,24.20
2022-10-28T13:35:11.907Z,24.20
2022-10-28T13:37:39.635Z,24.10
2022-10-28T13:40:07.346Z,24.00
2022-10-28T13:42:43.047Z,24.10
2022-10-28T13:45:48.478Z,24.10
2022-10-28T13:48:30.523Z,24.10
2022-10-28T13:51:09.326Z,24.20
2022-10-28T13:53:50.417Z,24.30
2022-10-28T13:56:35.948Z,24.20
2022-10-28T13:59:14.974Z,24.00
2022-10-28T14:01:41.861Z,24.00
2022-10-28T14:04:34.998Z,23.80
2022-10-28T14:07:10.781Z,23.90
2022-10-28T14:09:41.294Z,23.90
2022-10-28T14:12:23.147Z,23.90
2022-10-28T14:15:14.071Z,23.80
2022-10-28T14:17:44.782Z,23.70
2022-10-28T14:20:48.679Z,23.70
2022-10-28T14:23:21.553Z,23.70
2022-10-28T14:25:51.127Z,23.60
2022-10-28T14:28:30.025Z,23.60
2022-10-28T14:31:22.754Z,23.60
2022-10-28T14:33:55.240Z,23.60
2022-10-28T14:36:49.006Z,23.50
2022-10-28T14:39:35.421Z,23.40
2022-10-28T14:42:20.298Z,23.40
2022-10-28T14:45:20.755Z,23.30
2022-10-28T14:48:06.278Z,23.30
2022-10-28T14:50:32.966Z,23.10
2022-10-28T14:53:05.047Z,22.90
2022-10-28T14:55:33.989Z,22.90
2022-10-28T14:58:28.145Z,22.90
2022-10-28T15:01:00.731Z,22.90
2022-10-28T15:03:28.142Z,22.90
2022-10-28T15:05:54.961Z,22.70
2022-10-28T15:08:21.837Z,22.60
2022-10-28T15:10:49.770Z,22.60
2022-10-28T15:13:19.056Z,22.50
2022-10-28T15:15:59.321Z,22.50
2022-10-28T15:18:28.994Z,22.40
2022-10-28T15:21:10.252Z,22.50
2022-10-28T15:23:37.043Z,22.50
2022-10-28T15:26:14.198Z,22.40
2022-10-28T15:28:42.323Z,22.40
2022-10-28T15:31:10.383Z,22.20
2022-10-28T15:33:40.382Z,22.20
2022-10-28T15:36:20.924Z,22.10
2022-10-28T15:39:05.175Z,22.10
2022-10-28T15:41:41.447Z,22.10
2022-10-28T15:44:25.877Z,21.90
2022-10-28T15:46:53.371Z,21.90
2022-10-28T15:49:36.011Z,21.90
2022-10-28T15:52:18.084Z,21.90
2022-10-28T15:54:57.918Z,21.80
2022-10-28T15:57:27.800Z,21.70
2022-10-28T16:00:22.371Z,21.70
2022-10-28T16:03:02.327Z,21.50
2022-10-28T16:05:31.993Z,21.50
2022-10-28T16:08:05.053Z,21.40
2022-10-28T16:10:36.407Z,21.30
2022-10-28T16:13:09.138Z,21.30
2022-10-28T16:16:04.776Z,21.20
2022-10-28T16:18:34.874Z,21.20
2022-10-28T16:21:04.718Z,21.10
2022-10-28T16:23:39.722Z,21.00
2022-10-28T16:26:06.879Z,20.90
2022-10-28T16:28:33.765Z,20.90
2022-10-28T16:31:01.908Z,20.80
2022-10-28T16:33:32.563Z,20.80
2022-10-28T16:36:00.120Z,20.80
2022-10-28T16:38:26.912Z,20.60
2022-10-28T16:40:54.833Z,20.60
2022-10-28T16:43:24.578Z,20.60
2022-10-28T16:45:54.335Z,20.50
2022-10-28T16:48:26.656Z,20.60
2022-10-28T16:50:57.118Z,20.60
2022-10-28T16:53:24.265Z,20.60
2022-10-28T16:55:51.497Z,20.60
2022-10-28T16:58:21.807Z,20.60
2022-10-28T17:00:51.533Z,20.60
2022-10-28T17:03:18.467Z,20.70
2022-10-28T17:05:45.316Z,20.80
2022-10-28T17:08:12.644Z,20.80
2022-10-28T17:10:41.304Z,20.80
2022-10-28T17:13:14.350Z,20.80
2022-10-28T17:15:41.840Z,20.80
2022-10-28T17:18:13.281Z,20.80
2022-10-28T17:20:40.071Z,20.80
2022-10-28T17:23:07.299Z,20.80
2022-10-28T17:25:34.095Z,20.70
2022-10-28T17:28:00.931Z,20.70
2022-10-28T17:32:55.348Z,20.80
2022-10-28T17:35:23.379Z,20.80
2022-10-28T17:37:50.120Z,20.80
2022-10-28T17:45:11.906Z,21.00
2022-10-28T17:47:38.779Z,20.90
2022-10-28T17:50:05.933Z,20.90
2022-10-28T17:52:35.700Z,20.90
2022-10-28T17:55:05.599Z,20.90
2022-10-28T17:59:59.608Z,20.80
2022-10-28T18:02:26.771Z,20.80
2022-10-28T18:09:47.959Z,20.70
2022-10-28T18:17:11.828Z,20.40
2022-10-28T18:19:38.575Z,20.40
2022-10-28T18:24:32.574Z,20.30
2022-10-28T18:29:26.599Z,20.20
2022-10-28T18:31:53.408Z,20.20
2022-10-28T18:34:21.310Z,20.30
2022-10-28T18:39:15.632Z,20.40
2022-10-28T18:41:43.229Z,20.20
2022-10-28T18:44:13.095Z,20.30
2022-10-28T18:46:40.356Z,20.20
2022-10-28T18:49:07.077Z,20.20
2022-10-28T18:51:34.509Z,20.00
2022-10-28T18:54:01.676Z,20.10
2022-10-28T18:56:34.130Z,20.10
2022-10-28T18:59:04.051Z,20.00
2022-10-28T19:01:31.855Z,20.00
2022-10-28T19:04:01.016Z,19.80
2022-10-28T19:06:32.602Z,19.80
2022-10-28T19:09:04.770Z,19.60
2022-10-28T19:11:33.189Z,19.50
2022-10-28T19:14:02.319Z,19.50
2022-10-28T19:16:31.118Z,19.50
2022-10-28T19:18:59.678Z,19.50
2022-10-28T19:21:27.602Z,19.50
2022-10-28T19:23:54.752Z,19.60
2022-10-28T19:26:23.050Z,19.60
2022-10-28T19:28:50.539Z,19.40
2022-10-28T19:31:20.057Z,19.40
2022-10-28T19:33:46.948Z,19.30
2022-10-28T19:36:18.668Z,19.30
2022-10-28T19:38:46.887Z,19.40
2022-10-28T19:41:16.968Z,19.40
2022-10-28T19:43:44.845Z,19.20
2022-10-28T19:46:15.759Z,19.20
2022-10-28T19:48:45.600Z,19.30
2022-10-28T19:51:19.092Z,19.30
2022-10-28T19:53:53.420Z,19.20
2022-10-28T19:56:21.022Z,19.20
2022-10-28T19:58:53.384Z,19.20
2022-10-28T20:01:22.029Z,19.10
2022-10-28T20:03:52.955Z,19.00
2022-10-28T20:06:25.326Z,19.00
2022-10-28T20:11:24.911Z,19.10
2022-10-28T20:13:54.408Z,19.00
2022-10-28T20:16:21.512Z,19.00
2022-10-28T20:18:48.359Z,18.90
2022-10-28T20:21:20.705Z,18.90
2022-10-28T20:26:18.211Z,18.80
2022-10-28T20:28:44.936Z,18.80
2022-10-28T20:31:18.686Z,18.70
2022-10-28T20:33:51.026Z,18.70
2022-10-28T20:36:31.396Z,18.50
2022-10-28T20:39:04.042Z,18.50
2022-10-28T20:41:33.312Z,18.60
2022-10-28T20:44:01.466Z,18.60
2022-10-28T20:46:28.636Z,18.50
2022-10-28T20:48:56.601Z,18.50
2022-10-28T20:51:25.934Z,18.40
2022-10-28T20:53:53.323Z,18.40
2022-10-28T20:56:25.555Z,18.20
2022-10-28T20:58:53.798Z,18.20
2022-10-28T21:01:21.983Z,18.10
2022-10-28T21:03:49.634Z,18.20
2022-10-28T21:06:17.598Z,18.30
2022-10-28T21:08:44.891Z,18.20
2022-10-28T21:11:14.327Z,18.20
2022-10-28T21:13:41.528Z,18.20
2022-10-28T21:16:13.374Z,18.10
2022-10-28T21:18:40.390Z,18.20
2022-10-28T21:21:07.444Z,18.40
2022-10-28T21:23:37.256Z,18.40
2022-10-28T21:26:05.812Z,18.30
2022-10-28T21:28:33.769Z,17.90
2022-10-28T21:31:06.440Z,17.90
2022-10-28T21:33:35.414Z,17.90
2022-10-28T21:36:07.581Z,18.00
2022-10-28T21:38:35.261Z,18.00
2022-10-28T21:41:05.053Z,18.00
2022-10-28T21:43:34.909Z,18.10
2022-10-28T21:46:01.957Z,18.10
2022-10-28T21:48:29.606Z,18.20
2022-10-28T21:50:58.919Z,18.10
2022-10-28T21:53:26.410Z,18.10
2022-10-28T21:55:55.496Z,18.00
2022-10-28T21:58:22.429Z,18.00
2022-10-28T22:00:49.221Z,18.00
2022-10-28T22:03:16.025Z,17.80
2022-10-28T22:05:50.317Z,17.70
2022-10-28T22:08:17.909Z,17.80
2022-10-28T22:10:44.708Z,17.80
2022-10-28T22:13:11.579Z,17.80
2022-10-28T22:15:38.583Z,17.80
2022-10-28T22:18:05.387Z,17.80
2022-10-28T22:22:59.357Z,17.80
2022-10-28T22:25:26.108Z,17.70
2022-10-28T22:27:52.854Z,17.60
2022-10-28T22:30:19.584Z,17.60
2022-10-28T22:32:46.324Z,17.70
2022-10-28T22:35:13.122Z,17.70
2022-10-28T22:37:39.809Z,17.70
2022-10-28T22:40:07.214Z,17.60
2022-10-28T22:42:33.918Z,17.60
2022-10-28T22:45:00.665Z,17.60
2022-10-28T22:47:27.396Z,17.70
2022-10-28T22:49:54.110Z,17.40
2022-10-28T22:52:23.470Z,17.50
2022-10-28T22:54:50.185Z,17.40
2022-10-28T22:57:16.914Z,17.30
2022-10-28T23:02:10.950Z,17.40
2022-10-28T23:04:37.909Z,17.20
2022-10-28T23:07:04.654Z,17.20
2022-10-28T23:09:31.966Z,17.30
2022-10-28T23:11:58.681Z,17.40
2022-10-28T23:14:25.391Z,17.20
2022-10-28T23:16:52.121Z,17.20
2022-10-28T23:19:18.876Z,17.00
2022-10-28T23:21:45.624Z,16.80
2022-10-28T23:24:12.355Z,17.00
2022-10-28T23:26:39.094Z,17.00
2022-10-28T23:29:05.961Z,16.90
2022-10-28T23:31:32.709Z,16.80
2022-10-28T23:36:26.652Z,16.90
2022-10-28T23:38:55.590Z,16.80
2022-10-28T23:41:22.379Z,16.80
2022-10-28T23:43:49.637Z,16.90
2022-10-28T23:46:17.104Z,16.90
2022-10-28T23:48:43.848Z,16.70
2022-10-28T23:51:10.763Z,16.60
2022-10-28T23:53:37.524Z,16.30
2022-10-28T23:56:05.066Z,16.40
2022-10-28T23:58:31.804Z,16.50
